Latest Weather Observations for Toowoomba

IDQ60801

Issued at 2:02 am EST Wednesday 19 February 2020 (issued every 10 minutes, with the page automatically refreshed every 10 minutes)

About weather observations | Map of weather stations | Latest weather observations for QLD | Other Formats
Station Details ID: 041529 Name: TOOWOOMBA AIRPORT Lat: -27.54 Lon: 151.91 Height: 640.9 m
Data from the previous 72 hours. | See also: Recent months at Toowoomba
Date/Time
EST
Temp
°C
App
Temp
°C
Dew
Point
°C
Rel
Hum
%
Delta-T
°C
Wind Press
QNH
hPa
Press
MSL
hPa
Rain since
9am
mm
Dir  Spd
km/h
Gust
km/h
Spd
kts
Gust
kts
19/02:00am 21.7 23.1 21.0 96 0.5 NNE 15 22 8 12 1010.6 1006.9 0.0
19/01:30am 21.7 22.8 21.2 97 0.3 NNE 17 24 9 13 1010.8 1007.1 0.0
19/01:12am 21.5 22.3 21.3 99 0.1 NE 19 24 10 13 1010.8 1007.1 0.0
19/01:00am 21.4 22.6 21.4 100 0.0 NE 17 22 9 12 1011.5 1007.8 0.0
19/12:35am 21.3 22.4 21.3 100 0.0 ENE 17 20 9 11 1011.4 1007.7 0.0
19/12:30am 21.4 22.6 21.4 100 0.0 ENE 17 20 9 11 1011.6 1007.9 0.0
19/12:00am 21.6 23.3 21.6 100 0.0 ENE 15 19 8 10 1012.6 1008.9 0.0
 
Date/Time
EST
Temp
°C
App
Temp
°C
Dew
Point
°C
Rel
Hum
%
Delta-T
°C
Wind Press
QNH
hPa
Press
MSL
hPa
Rain since
9am
mm
Dir  Spd
km/h
Gust
km/h
Spd
kts
Gust
kts
18/11:30pm 21.8 23.1 21.6 99 0.1 ENE 17 19 9 10 1012.9 1009.2 0.0
18/11:00pm 22.3 23.6 21.6 96 0.5 E 17 19 9 10 1013.4 1009.8 0.0
18/10:30pm 22.6 23.9 21.6 94 0.7 ENE 17 19 9 10 1013.6 1009.9 0.0
18/10:00pm 22.6 23.4 21.4 93 0.8 E 19 24 10 13 1013.4 1009.8 0.0
18/09:30pm 23.1 24.1 21.0 88 1.4 E 17 22 9 12 1013.4 1009.8 0.0
18/09:00pm 23.6 23.9 20.3 82 2.2 E 19 24 10 13 1013.3 1009.7 0.0
18/08:30pm 24.1 24.4 18.7 72 3.5 E 15 22 8 12 1013.2 1009.5 0.0
18/08:00pm 24.8 24.0 17.0 62 5.0 E 17 19 9 10 1012.9 1009.2 0.0
18/07:30pm 25.2 25.1 16.9 60 5.3 ENE 13 17 7 9 1013.2 1009.5 0.0
18/07:00pm 25.6 25.9 17.0 59 5.5 NE 11 13 6 7 1012.9 1009.2 0.0
18/06:30pm 26.1 25.5 17.5 59 5.5 E 17 22 9 12 1012.4 1008.7 0.0
18/06:00pm 26.6 25.5 17.7 58 5.8 E 20 28 11 15 1012.1 1008.4 0.0
18/05:30pm 27.3 25.9 18.0 56 6.0 E 22 28 12 15 1011.5 1007.8 0.0
18/05:00pm 27.9 27.0 17.7 53 6.6 E 19 24 10 13 1012.1 1008.4 0.0
18/04:30pm 28.0 27.2 18.1 55 6.5 ESE 19 26 10 14 1012.3 1008.6 0.0
18/04:00pm 28.4 28.7 18.8 56 6.3 ESE 15 22 8 12 1012.5 1008.8 0.0
18/03:30pm 28.4 28.6 19.3 57 6.0 E 17 28 9 15 1012.5 1008.8 0.0
18/03:00pm 27.8 27.6 18.5 57 6.1 ESE 17 24 9 13 1012.7 1009.0 0.0
18/02:30pm 28.0 28.5 18.4 56 6.3 E 13 22 7 12 1013.0 1009.3 0.0
18/02:00pm 27.9 28.0 18.3 56 6.3 E 15 24 8 13 1013.4 1009.8 0.0
18/01:30pm 27.6 28.2 19.4 61 5.4 ENE 15 24 8 13 1014.0 1010.3 0.0
18/01:00pm 27.3 27.7 18.9 60 5.5 E 15 24 8 13 1014.3 1010.6 0.0
18/12:30pm 26.9 27.5 18.7 60 5.4 NE 13 20 7 11 1014.7 1011.0 0.0
18/12:00pm 26.5 26.6 19.1 64 4.9 ENE 17 26 9 14 1015.0 1011.4 0.0
18/11:30am 25.8 25.9 19.2 67 4.3 ENE 17 24 9 13 1015.6 1011.9 0.0
18/11:00am 25.3 25.5 19.4 70 3.9 ENE 17 24 9 13 1015.8 1012.1 0.0
18/10:30am 24.9 25.0 19.1 70 3.8 ENE 17 24 9 13 1016.1 1012.4 0.0
18/10:00am 24.2 24.5 19.7 76 3.0 ENE 17 22 9 12 1016.4 1012.8 0.0
18/09:35am 23.9 24.3 19.8 78 2.7 ENE 17 24 9 13 1016.2 1012.6 0.0
18/09:30am 23.9 24.4 20.0 79 2.6 ENE 17 26 9 14 1016.2 1012.6 0.0
18/09:00am 22.5 22.3 19.3 82 2.1 ENE 19 24 10 13 1016.2 1012.6 0.0
18/08:33am 22.4 22.0 19.4 83 2.0 ENE 20 26 11 14 1016.1 1012.4 0.0
18/08:30am 22.3 21.8 19.1 82 2.1 ENE 20 26 11 14 1016.1 1012.4 0.0
18/08:25am 22.3 21.9 19.3 83 2.0 ENE 20 26 11 14 1016.1 1012.4 0.0
18/08:00am 21.4 22.4 19.5 89 1.2 ENE 13 22 7 12 1016.1 1012.4 0.0
18/07:30am 21.0 21.0 19.8 93 0.8 ENE 19 24 10 13 1015.7 1012.0 0.0
18/07:00am 20.3 20.8 20.1 99 0.1 ENE 17 24 9 13 1015.3 1011.6 0.0
18/06:30am 19.9 20.2 19.7 99 0.1 E 17 20 9 11 1015.1 1011.5 0.0
18/06:00am 19.7 20.8 19.7 100 0.0 ENE 13 19 7 10 1014.8 1011.2 0.0
18/05:33am 19.6 21.3 19.4 99 0.1 NE 9 17 5 9 1014.4 1010.7 0.0
18/05:30am 19.5 20.8 19.3 99 0.1 NE 11 19 6 10 1014.4 1010.7 0.0
18/05:00am 19.6 18.5 19.4 99 0.1 E 24 30 13 16 1013.9 1010.2 0.0
18/04:30am 19.7 18.2 19.5 99 0.1 E 26 33 14 18 1013.4 1009.8 0.0
18/04:00am 19.6 19.5 19.6 100 0.0 ENE 19 24 10 13 1013.6 1009.9 0.0
18/03:30am 19.8 20.1 19.6 99 0.1 NE 17 22 9 12 1014.0 1010.3 0.0
18/03:09am 19.8 20.1 19.6 99 0.1 ENE 17 22 9 12 1014.2 1010.5 0.0
18/03:00am 19.9 20.6 19.7 99 0.1 ENE 15 20 8 11 1014.3 1010.6 0.0
18/02:30am 20.2 21.8 20.0 99 0.1 ENE 11 17 6 9 1015.3 1011.6 0.0
18/02:00am 20.4 21.4 20.2 99 0.1 SE 15 20 8 11 1015.6 1011.9 0.0
18/01:30am 20.3 20.5 20.1 99 0.1 ENE 19 32 10 17 1016.2 1012.6 0.0
18/01:00am 20.3 18.0 20.1 99 0.1 E 32 39 17 21 1016.4 1012.8 0.0
18/12:30am 20.2 17.8 20.0 99 0.1 ESE 32 39 17 21 1016.5 1012.9 0.0
18/12:26am 20.2 17.8 20.0 99 0.1 ESE 32 39 17 21 1016.4 1012.8 0.0
18/12:16am 20.1 18.1 19.9 99 0.1 E 30 41 16 22 1016.3 1012.7 0.0
18/12:00am 20.2 17.8 20.0 99 0.1 E 32 44 17 24 1016.3 1012.7 0.0
 
Date/Time
EST
Temp
°C
App
Temp
°C
Dew
Point
°C
Rel
Hum
%
Delta-T
°C
Wind Press
QNH
hPa
Press
MSL
hPa
Rain since
9am
mm
Dir  Spd
km/h
Gust
km/h
Spd
kts
Gust
kts
17/11:36pm 20.2 17.6 20.0 99 0.1 E 33 44 18 24 1016.5 1012.9 0.0
17/11:30pm 20.2 17.3 20.0 99 0.1 E 35 44 19 24 1016.6 1013.0 0.0
17/11:00pm 20.2 17.6 20.0 99 0.1 E 33 43 18 23 1016.6 1013.0 0.0
17/10:30pm 20.4 17.7 19.7 96 0.5 ESE 33 43 18 23 1017.1 1013.4 0.0
17/10:00pm 20.7 17.5 19.4 92 0.8 ESE 35 43 19 23 1017.3 1013.6 0.0
17/09:30pm 21.2 18.3 18.9 87 1.5 E 32 39 17 21 1017.3 1013.6 0.0
17/09:00pm 21.8 18.2 18.6 82 2.1 E 35 44 19 24 1017.6 1014.0 0.0
17/08:30pm 22.4 19.0 18.2 77 2.7 E 33 43 18 23 1017.7 1014.1 0.0
17/08:00pm 23.0 19.1 18.7 77 2.8 E 37 46 20 25 1017.3 1013.6 0.0
17/07:30pm 23.8 20.9 18.9 74 3.2 E 32 39 17 21 1016.9 1013.2 0.0
17/07:00pm 24.6 21.5 18.5 69 4.0 E 32 39 17 21 1016.0 1012.3 0.0
17/06:30pm 25.3 23.4 17.7 62 4.9 E 24 32 13 17 1015.6 1011.9 0.0
17/06:00pm 26.4 25.2 17.5 58 5.7 E 20 26 11 14 1015.0 1011.4 0.0
17/05:30pm 26.9 24.1 17.4 56 6.1 E 28 37 15 20 1014.3 1010.6 0.0
17/05:00pm 27.1 24.3 17.3 55 6.3 ESE 28 33 15 18 1014.0 1010.3 0.0
17/04:30pm 27.5 24.7 17.4 54 6.5 ESE 28 35 15 19 1014.2 1010.5 0.0
17/04:00pm 27.8 26.5 18.2 56 6.3 ESE 22 28 12 15 1014.5 1010.8 0.0
17/03:30pm 27.6 26.8 18.0 55 6.2 E 19 28 10 15 1014.7 1011.0 0.0
17/03:00pm 28.2 27.5 18.6 56 6.3 ESE 20 28 11 15 1014.9 1011.3 0.0
17/02:30pm 27.4 26.2 17.6 55 6.3 E 20 32 11 17 1015.5 1011.8 0.0
17/02:00pm 27.4 27.0 18.1 57 6.1 ESE 17 30 9 16 1015.7 1012.0 0.0
17/01:30pm 27.2 26.4 17.9 56 6.0 E 19 30 10 16 1016.1 1012.4 0.0
17/01:00pm 27.0 26.0 17.5 56 6.1 E 19 26 10 14 1016.2 1012.6 0.0
17/12:30pm 26.9 26.5 19.0 62 5.2 E 19 32 10 17 1016.4 1012.8 0.0
17/12:00pm 26.3 25.7 18.9 63 4.9 E 20 28 11 15 1016.6 1013.0 0.0
17/11:30am 25.8 25.1 18.7 65 4.6 ESE 20 28 11 15 1017.0 1013.3 0.0
17/11:00am 25.7 25.4 19.6 69 4.0 E 20 32 11 17 1017.2 1013.5 0.0
17/10:30am 25.0 22.8 18.7 68 4.1 E 28 37 15 20 1017.0 1013.3 0.0
17/10:00am 25.2 23.3 19.3 70 3.9 E 28 39 15 21 1016.9 1013.2 0.0
17/09:30am 24.6 21.6 19.9 75 3.1 E 35 44 19 24 1016.9 1013.2 0.0
17/09:00am 23.7 20.3 19.8 79 2.6 E 37 46 20 25 1016.7 1013.1 0.0
17/08:30am 22.5 18.5 18.5 78 2.6 E 37 44 20 24 1016.6 1013.0 0.0
17/08:14am 22.1 18.8 19.3 84 1.8 E 35 44 19 24 1016.9 1013.2 0.0
17/08:00am 22.0 19.3 19.7 87 1.5 E 33 43 18 23 1017.0 1013.3 0.0
17/07:30am 21.0 18.2 19.5 91 1.0 E 33 43 18 23 1017.0 1013.3 0.0
17/07:00am 20.7 18.4 20.2 97 0.3 E 32 37 17 20 1016.7 1013.1 0.0
17/06:30am 20.1 19.2 19.9 99 0.1 E 24 35 13 19 1016.5 1012.9 0.0
17/06:00am 20.1 18.8 19.9 99 0.1 E 26 35 14 19 1016.2 1012.6 0.0
17/05:30am 20.0 18.3 19.8 99 0.1 E 28 39 15 21 1015.8 1012.1 0.0
17/05:00am 20.2 19.4 20.0 99 0.1 E 24 35 13 19 1015.7 1012.0 0.0
17/04:30am 20.2 18.7 19.5 96 0.5 E 26 37 14 20 1015.7 1012.0 0.0
17/04:20am 20.1 18.8 19.8 98 0.2 E 26 35 14 19 1015.6 1011.9 0.0
17/04:04am 20.0 19.0 19.7 98 0.2 E 24 39 13 21 1015.5 1011.8 0.0
17/04:00am 20.0 18.5 19.5 97 0.3 E 26 39 14 21 1015.4 1011.7 0.0
17/03:30am 20.2 17.8 20.0 99 0.1 E 32 43 17 23 1015.3 1011.6 0.0
17/03:00am 20.3 18.1 20.3 100 0.0 E 32 41 17 22 1015.1 1011.5 0.0
17/02:30am 20.3 18.1 20.3 100 0.0 E 32 39 17 21 1015.3 1011.6 0.0
17/02:00am 20.5 18.4 20.5 100 0.0 E 32 43 17 23 1015.6 1011.9 0.0
17/01:30am 20.5 18.1 20.3 99 0.1 E 33 44 18 24 1015.5 1011.8 0.0
17/01:00am 20.6 18.2 20.4 99 0.1 E 33 43 18 23 1015.7 1012.0 0.0
17/12:30am 20.9 18.8 20.6 98 0.2 E 32 41 17 22 1016.4 1012.8 0.0
17/12:00am 20.9 19.3 20.7 99 0.1 E 30 39 16 21 1017.0 1013.3 0.0
 
Date/Time
EST
Temp
°C
App
Temp
°C
Dew
Point
°C
Rel
Hum
%
Delta-T
°C
Wind Press
QNH
hPa
Press
MSL
hPa
Rain since
9am
mm
Dir  Spd
km/h
Gust
km/h
Spd
kts
Gust
kts
16/11:30pm 20.9 18.3 20.7 99 0.1 E 35 46 19 25 1017.3 1013.6 0.0
16/11:00pm 21.1 18.2 20.9 99 0.1 E 37 50 20 27 1017.3 1013.6 0.0
16/10:30pm 21.1 18.7 20.4 96 0.5 E 33 43 18 23 1017.0 1013.3 0.0
16/10:00pm 21.5 18.6 20.1 92 0.9 E 35 44 19 24 1017.1 1013.4 0.0
16/09:42pm 21.7 19.3 20.0 90 1.1 E 32 41 17 22 1016.9 1013.2 0.0
16/09:30pm 21.8 19.6 20.3 91 1.0 E 32 46 17 25 1016.6 1013.0 0.0
16/09:00pm 22.1 20.0 20.6 91 1.0 E 32 41 17 22 1016.7 1013.1 0.0
16/08:30pm 22.5 20.1 20.4 88 1.4 E 33 44 18 24 1016.5 1012.9 0.0
16/08:00pm 23.0 20.2 20.3 85 1.8 E 35 46 19 25 1016.2 1012.6 0.0
16/07:30pm 23.3 20.6 20.4 84 1.9 E 35 48 19 26 1015.6 1011.9 0.0
16/07:00pm 24.5 21.9 20.0 76 3.0 E 33 43 18 23 1015.0 1011.4 0.0
16/06:30pm 25.6 23.2 19.9 70 3.8 E 32 46 17 25 1014.8 1011.2 0.0
16/06:00pm 26.8 25.1 19.7 65 4.7 E 28 39 15 21 1014.5 1010.8 0.0
16/05:30pm 27.5 25.6 19.3 61 5.4 E 28 39 15 21 1014.3 1010.6 0.0
16/05:00pm 28.2 26.1 18.9 57 6.1 ESE 28 37 15 20 1014.0 1010.3 0.0
16/04:30pm 28.6 27.3 19.0 56 6.4 E 24 32 13 17 1013.7 1010.0 0.0
16/04:00pm 28.8 27.8 18.9 55 6.5 E 22 32 12 17 1013.7 1010.0 0.0
16/03:30pm 28.5 27.3 18.3 54 6.7 E 22 32 12 17 1013.8 1010.1 0.0
16/03:00pm 28.7 28.1 18.5 54 6.7 ESE 19 30 10 16 1014.0 1010.3 0.0
16/02:30pm 28.8 26.9 17.7 51 7.2 E 24 32 13 17 1014.0 1010.3 0.0
16/02:00pm 28.6 27.3 19.0 56 6.4 E 24 33 13 18 1014.2 1010.5 0.0
16/01:30pm 28.3 27.1 19.2 57 6.0 E 24 35 13 19 1014.4 1010.7 0.0
16/01:00pm 28.1 27.8 20.4 63 5.2 E 22 33 12 18 1014.7 1011.0 0.0
16/12:30pm 27.6 27.7 20.4 65 4.8 E 20 33 11 18 1014.8 1011.2 0.0
16/12:00pm 27.0 26.3 19.4 63 5.0 E 22 32 12 17 1014.9 1011.3 0.0
16/11:30am 27.1 26.3 20.0 65 4.7 E 24 32 13 17 1015.3 1011.6 0.0
16/11:00am 26.4 25.2 19.3 65 4.7 E 24 33 13 18 1015.4 1011.7 0.0
16/10:30am 26.3 26.2 20.8 71 3.7 E 22 32 12 17 1015.6 1011.9 0.0
16/10:00am 25.6 24.8 20.8 75 3.2 E 26 32 14 17 1015.6 1011.9 0.0
16/09:30am 24.8 23.8 20.5 77 2.9 E 26 32 14 17 1015.4 1011.7 0.0
16/09:00am 24.6 24.1 21.5 83 2.1 E 26 33 14 18 1015.4 1011.7 0.2
16/08:30am 23.8 22.9 21.5 87 1.6 E 28 33 15 18 1015.3 1011.6 0.2
16/08:27am 23.5 22.7 21.6 89 1.3 E 28 35 15 19 1015.3 1011.6 0.2
16/08:00am 22.5 22.0 21.5 94 0.7 E 26 35 14 19 1015.1 1011.5 0.2
16/07:30am 22.2 21.7 21.5 96 0.5 E 26 32 14 17 1014.8 1011.2 0.2
16/07:00am 22.0 21.9 21.5 97 0.3 E 24 32 13 17 1014.4 1010.7 0.2
16/06:30am 21.7 21.6 21.5 99 0.1 E 24 30 13 16 1014.0 1010.3 0.2
16/06:00am 21.6 21.6 21.6 100 0.0 E 24 30 13 16 1013.7 1010.0 0.2
16/05:30am 21.6 21.9 21.6 100 0.0 E 22 30 12 16 1013.2 1009.5 0.2
16/05:00am 21.5 22.7 21.5 100 0.0 E 17 22 9 12 1012.8 1009.1 0.2
16/04:30am 21.7 22.7 21.7 100 0.0 E 19 24 10 13 1012.7 1009.0 0.2
16/04:00am 21.8 22.6 21.8 100 0.0 E 20 24 11 13 1012.5 1008.8 0.2
16/03:30am 21.8 22.2 21.8 100 0.0 ENE 22 30 12 16 1012.3 1008.6 0.2
16/03:00am 21.8 22.2 21.8 100 0.0 ENE 22 28 12 15 1012.2 1008.5 0.2
16/02:30am 21.9 23.0 21.9 100 0.0 ENE 19 22 10 12 1012.2 1008.5 0.2

Other formats

Comma delimited format used in spreadsheet applications
http://www.bom.gov.au/fwo/IDQ60801/IDQ60801.95551.axf

JavaScript Object Notation format (JSON) in row-major order
http://www.bom.gov.au/fwo/IDQ60801/IDQ60801.95551.json

Data quality

Most of these data are generated automatically and are frequently updated. Quality checks on data are not normally performed. It is possible for incorrect values to appear. Refer to information at About Latest Weather Observations and please check the disclaimer before using these data.